createdAt,value
2018-05-04T00:00:24.241Z,99.99
2018-05-04T00:01:24.190Z,99.99
2018-05-04T00:02:24.218Z,99.99
2018-05-04T00:03:24.208Z,99.99
2018-05-04T00:04:24.200Z,99.99
2018-05-04T00:05:24.193Z,99.99
2018-05-04T00:06:24.198Z,99.99
2018-05-04T00:07:23.923Z,99.99
2018-05-04T00:08:24.166Z,99.99
2018-05-04T00:09:24.175Z,99.99
2018-05-04T00:10:24.144Z,99.99
2018-05-04T00:11:24.135Z,99.99
2018-05-04T00:12:23.867Z,99.99
2018-05-04T00:13:24.119Z,99.99
2018-05-04T00:14:24.109Z,99.99
2018-05-04T00:15:23.844Z,99.99
2018-05-04T00:16:24.092Z,99.99
2018-05-04T00:17:23.877Z,99.99
2018-05-04T00:18:24.179Z,99.99
2018-05-04T00:19:24.060Z,99.99
2018-05-04T00:20:24.052Z,99.99
2018-05-04T00:21:24.058Z,99.99
2018-05-04T00:22:23.776Z,99.99
2018-05-04T00:23:24.105Z,99.99
2018-05-04T00:24:24.019Z,99.99
2018-05-04T00:25:24.007Z,99.99
2018-05-04T00:26:23.996Z,99.99
2018-05-04T00:27:23.734Z,99.99
2018-05-04T00:28:23.984Z,99.99
2018-05-04T00:29:23.969Z,99.99
2018-05-04T00:30:23.965Z,99.99
2018-05-04T00:31:23.694Z,99.99
2018-05-04T00:32:23.684Z,99.99
2018-05-04T00:33:23.671Z,99.99
2018-05-04T00:34:23.922Z,99.99
2018-05-04T00:35:23.912Z,99.99
2018-05-04T00:36:23.903Z,99.99
2018-05-04T00:37:23.895Z,99.99
2018-05-04T00:38:23.627Z,99.99
2018-05-04T00:39:23.878Z,99.99
2018-05-04T00:40:23.868Z,99.99
2018-05-04T00:41:23.597Z,99.99
2018-05-04T00:42:23.849Z,99.99
2018-05-04T00:43:23.836Z,99.99
2018-05-04T00:44:23.827Z,99.99
2018-05-04T00:45:23.561Z,99.99
2018-05-04T00:46:23.813Z,99.99
2018-05-04T00:47:23.540Z,99.99
2018-05-04T00:48:23.793Z,99.99
2018-05-04T00:49:23.784Z,99.99
2018-05-04T00:50:23.784Z,99.99
2018-05-04T00:51:23.774Z,99.99
2018-05-04T00:52:23.492Z,99.99
2018-05-04T00:53:23.741Z,99.99
2018-05-04T00:54:23.477Z,99.99
2018-05-04T00:55:23.464Z,99.99
2018-05-04T00:56:23.456Z,99.99
2018-05-04T00:57:23.703Z,99.99
2018-05-04T00:58:23.709Z,99.99
2018-05-04T00:59:23.696Z,99.99
2018-05-04T01:00:23.673Z,99.99
2018-05-04T01:01:23.663Z,99.99
2018-05-04T01:02:23.656Z,99.99
2018-05-04T01:03:23.644Z,99.99
2018-05-04T01:04:23.854Z,99.99
2018-05-04T01:05:23.625Z,99.99
2018-05-04T01:06:23.617Z,99.99
2018-05-04T01:07:23.610Z,99.99
2018-05-04T01:08:23.338Z,99.99
2018-05-04T01:09:23.587Z,99.99
2018-05-04T01:10:23.577Z,99.99
2018-05-04T01:11:23.572Z,99.99
2018-05-04T01:12:23.303Z,99.99
2018-05-04T01:13:23.548Z,99.99
2018-05-04T01:14:23.539Z,99.99
2018-05-04T01:15:23.536Z,99.99
2018-05-04T01:16:23.520Z,99.99
2018-05-04T01:17:23.510Z,99.99
2018-05-04T01:18:23.496Z,99.99
2018-05-04T01:19:23.232Z,99.99
2018-05-04T01:20:23.482Z,99.99
2018-05-04T01:21:23.212Z,99.99
2018-05-04T01:22:23.201Z,99.99
2018-05-04T01:23:23.448Z,99.99
2018-05-04T01:24:23.438Z,99.99
2018-05-04T01:25:23.433Z,99.99
2018-05-04T01:26:23.422Z,99.99
2018-05-04T01:27:23.167Z,99.99
2018-05-04T01:28:23.598Z,99.99
2018-05-04T01:29:23.132Z,99.99
2018-05-04T01:30:23.379Z,99.99
2018-05-04T01:31:23.110Z,99.99
2018-05-04T01:32:23.360Z,99.99
2018-05-04T01:33:23.357Z,99.99
2018-05-04T01:34:23.338Z,99.99
2018-05-04T01:35:23.329Z,99.99
2018-05-04T01:36:23.318Z,99.99
2018-05-04T01:37:23.052Z,99.99
2018-05-04T01:38:23.295Z,99.99
2018-05-04T01:39:23.288Z,99.99
2018-05-04T01:40:23.279Z,99.99
2018-05-04T01:41:23.267Z,99.99
2018-05-04T01:42:23.000Z,99.99
2018-05-04T01:43:23.249Z,99.99
2018-05-04T01:44:23.236Z,99.99
2018-05-04T01:45:22.975Z,99.99
2018-05-04T01:46:23.217Z,99.99
2018-05-04T01:47:22.949Z,99.99
2018-05-04T01:48:23.207Z,99.99
2018-05-04T01:49:23.203Z,99.99
2018-05-04T01:50:22.919Z,99.99
2018-05-04T01:51:23.165Z,99.99
2018-05-04T01:52:22.896Z,99.99
2018-05-04T01:53:23.142Z,99.99
2018-05-04T01:54:23.134Z,99.99
2018-05-04T01:55:22.866Z,99.99
2018-05-04T01:56:23.130Z,99.99
2018-05-04T01:57:23.106Z,99.99
2018-05-04T01:58:22.838Z,99.99
2018-05-04T01:59:23.085Z,99.99
2018-05-04T02:00:23.073Z,99.99
2018-05-04T02:01:22.803Z,99.99
2018-05-04T02:02:23.051Z,99.99
2018-05-04T02:03:23.038Z,99.99
2018-05-04T02:04:23.033Z,99.99
2018-05-04T02:05:23.016Z,99.99
2018-05-04T02:06:22.753Z,99.99
2018-05-04T02:07:23.013Z,99.99
2018-05-04T02:08:22.988Z,99.99
2018-05-04T02:09:22.977Z,99.99
2018-05-04T02:10:22.715Z,99.99
2018-05-04T02:11:22.956Z,99.99
2018-05-04T02:12:22.946Z,99.99
2018-05-04T02:13:22.932Z,99.99
2018-05-04T02:14:22.921Z,99.99
2018-05-04T02:15:22.918Z,99.99
2018-05-04T02:16:22.907Z,99.99
2018-05-04T02:17:22.900Z,99.99
2018-05-04T02:18:22.881Z,99.99
2018-05-04T02:19:22.874Z,99.99
2018-05-04T02:20:22.600Z,99.99
2018-05-04T02:21:22.850Z,99.99
2018-05-04T02:22:22.844Z,99.99
2018-05-04T02:23:22.826Z,99.99
2018-05-04T02:24:23.016Z,99.99
2018-05-04T02:25:22.804Z,99.99
2018-05-04T02:26:22.536Z,99.99
2018-05-04T02:27:22.787Z,99.99
2018-05-04T02:28:22.771Z,99.99
2018-05-04T02:29:22.761Z,99.99
2018-05-04T02:30:22.761Z,99.99
2018-05-04T02:31:22.744Z,99.99
2018-05-04T02:32:22.729Z,99.99
2018-05-04T02:33:22.719Z,99.99
2018-05-04T02:34:22.718Z,99.99
2018-05-04T02:35:22.720Z,99.99
2018-05-04T02:36:22.684Z,99.99
2018-05-04T02:37:22.674Z,99.99
2018-05-04T02:38:22.663Z,99.99
2018-05-04T02:39:22.663Z,99.99
2018-05-04T02:40:22.380Z,99.99
2018-05-04T02:41:22.370Z,99.99
2018-05-04T02:42:22.620Z,99.99
2018-05-04T02:43:22.347Z,99.99
2018-05-04T02:44:22.596Z,99.99
2018-05-04T02:45:22.602Z,99.99
2018-05-04T02:46:22.573Z,99.99
2018-05-04T02:47:22.561Z,99.99
2018-05-04T02:48:22.568Z,99.99
2018-05-04T02:49:22.538Z,99.99
2018-05-04T02:50:22.271Z,99.99
2018-05-04T02:51:22.520Z,99.99
2018-05-04T02:52:22.523Z,99.99
2018-05-04T02:53:22.497Z,99.99
2018-05-04T02:54:22.487Z,99.99
2018-05-04T02:55:22.554Z,99.99
2018-05-04T02:56:22.461Z,99.99
2018-05-04T02:57:22.447Z,99.99
2018-05-04T02:58:22.433Z,99.99
2018-05-04T02:59:22.426Z,99.99
2018-05-04T03:00:22.420Z,99.99
2018-05-04T03:01:22.420Z,99.99
2018-05-04T03:02:22.405Z,99.99
2018-05-04T03:03:22.378Z,99.99
2018-05-04T03:04:22.367Z,99.99
2018-05-04T03:05:22.358Z,99.99
2018-05-04T03:06:22.349Z,99.99
2018-05-04T03:07:22.330Z,99.99
2018-05-04T03:08:22.324Z,99.99
2018-05-04T03:09:22.309Z,99.99
2018-05-04T03:10:22.300Z,99.99
2018-05-04T03:11:22.030Z,99.99
2018-05-04T03:12:22.280Z,99.99
2018-05-04T03:13:22.268Z,99.99
2018-05-04T03:14:22.250Z,99.99
2018-05-04T03:15:22.241Z,99.99
2018-05-04T03:16:22.228Z,99.99
2018-05-04T03:17:22.217Z,99.99
2018-05-04T03:18:22.222Z,99.99
2018-05-04T03:19:22.420Z,99.99
2018-05-04T03:20:22.197Z,99.99
2018-05-04T03:21:21.912Z,99.99
2018-05-04T03:22:22.162Z,99.99
2018-05-04T03:23:21.895Z,99.99
2018-05-04T03:24:22.140Z,99.99
2018-05-04T03:25:22.126Z,99.99
2018-05-04T03:26:22.110Z,99.99
2018-05-04T03:27:22.100Z,99.99
2018-05-04T03:28:22.090Z,99.99
2018-05-04T03:29:22.103Z,99.99
2018-05-04T03:30:22.074Z,99.99
2018-05-04T03:31:21.798Z,99.99
2018-05-04T03:32:22.044Z,99.99
2018-05-04T03:33:22.031Z,99.99
2018-05-04T03:34:22.018Z,99.99
2018-05-04T03:35:22.009Z,99.99
2018-05-04T03:36:22.017Z,99.99
2018-05-04T03:37:21.982Z,99.99
2018-05-04T03:38:21.712Z,99.99
2018-05-04T03:39:21.702Z,99.99
2018-05-04T03:40:21.961Z,99.99
2018-05-04T03:41:21.938Z,99.99
2018-05-04T03:42:21.924Z,99.99
2018-05-04T03:43:21.918Z,99.99
2018-05-04T03:44:21.914Z,99.99
2018-05-04T03:45:21.638Z,99.99
2018-05-04T03:46:21.886Z,99.99
2018-05-04T03:47:21.613Z,99.99
2018-05-04T03:48:21.853Z,99.99
2018-05-04T03:49:21.843Z,99.99
2018-05-04T03:50:21.832Z,99.99
2018-05-04T03:51:21.818Z,99.99
2018-05-04T03:52:21.814Z,99.99
2018-05-04T03:53:21.537Z,99.99
2018-05-04T03:54:21.782Z,99.99
2018-05-04T03:55:21.516Z,99.99
2018-05-04T03:56:21.762Z,99.99
2018-05-04T03:57:21.968Z,99.99
2018-05-04T03:58:21.760Z,99.99
2018-05-04T03:59:21.741Z,99.99
2018-05-04T04:00:21.709Z,99.99
2018-05-04T04:01:21.702Z,99.99
2018-05-04T04:02:21.768Z,99.99
2018-05-04T04:03:21.685Z,99.99
2018-05-04T04:04:21.677Z,99.99
2018-05-04T04:05:21.672Z,99.99
2018-05-04T04:06:21.385Z,99.99
2018-05-04T04:07:21.632Z,99.99
2018-05-04T04:08:21.617Z,99.99
2018-05-04T04:09:21.608Z,99.99
2018-05-04T04:10:21.593Z,99.99
2018-05-04T04:11:21.584Z,99.99
2018-05-04T04:12:21.790Z,99.99
2018-05-04T04:13:21.562Z,99.99
2018-05-04T04:14:21.550Z,99.99
2018-05-04T04:15:21.538Z,99.99
2018-05-04T04:16:21.265Z,98.74
2018-05-04T04:17:21.262Z,98.17
2018-05-04T04:18:21.501Z,97.97
2018-05-04T04:19:21.505Z,98.17
2018-05-04T04:20:21.220Z,97.69
2018-05-04T04:21:21.210Z,97.41
2018-05-04T04:22:21.454Z,96.26
2018-05-04T04:23:21.187Z,95.89
2018-05-04T04:24:21.445Z,95.46
2018-05-04T04:25:21.424Z,93.6
2018-05-04T04:26:21.152Z,92.99
2018-05-04T04:27:21.397Z,93.65
2018-05-04T04:28:21.511Z,94.42
2018-05-04T04:29:21.120Z,93.18
2018-05-04T04:30:21.108Z,92.03
2018-05-04T04:31:21.358Z,92.7
2018-05-04T04:32:21.341Z,90.99
2018-05-04T04:33:21.408Z,89.56
2018-05-04T04:34:21.331Z,86.71
2018-05-04T04:35:21.055Z,85
2018-05-04T04:36:21.298Z,85.76
2018-05-04T04:37:21.284Z,85.38
2018-05-04T04:38:21.273Z,85.76
2018-05-04T04:39:21.271Z,84.14
2018-05-04T04:40:21.248Z,81.67
2018-05-04T04:41:21.245Z,81.48
2018-05-04T04:42:21.246Z,80.15
2018-05-04T04:43:20.960Z,79.2
2018-05-04T04:44:21.222Z,77.97
2018-05-04T04:45:21.197Z,76.25
2018-05-04T04:46:20.927Z,76.82
2018-05-04T04:47:21.174Z,76.82
2018-05-04T04:48:20.904Z,77.3
2018-05-04T04:49:21.150Z,75.49
2018-05-04T04:50:21.360Z,75.11
2018-05-04T04:51:21.134Z,75.02
2018-05-04T04:52:21.119Z,75.21
2018-05-04T04:53:20.850Z,74.54
2018-05-04T04:54:21.093Z,73.78
2018-05-04T04:55:21.101Z,73.21
2018-05-04T04:56:21.078Z,73.49
2018-05-04T04:57:21.066Z,71.69
2018-05-04T04:58:21.057Z,72.83
2018-05-04T04:59:21.045Z,73.21
2018-05-04T05:00:21.030Z,71.82
2018-05-04T05:01:21.017Z,71.31
2018-05-04T05:02:21.007Z,72.39
2018-05-04T05:03:21.002Z,71.34
2018-05-04T05:04:20.988Z,70.97
2018-05-04T05:05:20.978Z,69.06
2018-05-04T05:06:20.962Z,68.11
2018-05-04T05:07:20.695Z,68.49
2018-05-04T05:08:20.941Z,69.15
2018-05-04T05:09:20.672Z,69.35
2018-05-04T05:10:20.927Z,68.96
2018-05-04T05:11:20.653Z,69.25
2018-05-04T05:12:20.897Z,69.25
2018-05-04T05:13:20.629Z,69.06
2018-05-04T05:14:20.875Z,68.77
2018-05-04T05:15:20.609Z,67.82
2018-05-04T05:16:20.856Z,67.35
2018-05-04T05:17:21.066Z,66.49
2018-05-04T05:18:20.830Z,67.16
2018-05-04T05:19:20.863Z,68.21
2018-05-04T05:20:20.814Z,68.4
2018-05-04T05:21:20.804Z,67.07
2018-05-04T05:22:20.787Z,67.07
2018-05-04T05:23:20.779Z,69.35
2018-05-04T05:24:20.771Z,69.06
2018-05-04T05:25:20.759Z,69.73
2018-05-04T05:26:20.746Z,69.25
2018-05-04T05:27:20.735Z,66.68
2018-05-04T05:28:20.724Z,63.92
2018-05-04T05:29:20.739Z,63.45
2018-05-04T05:30:20.703Z,64.69
2018-05-04T05:31:20.693Z,64.11
2018-05-04T05:32:20.683Z,62.88
2018-05-04T05:33:20.673Z,60.12
2018-05-04T05:34:20.663Z,59.07
2018-05-04T05:35:20.653Z,59.83
2018-05-04T05:36:20.641Z,60.69
2018-05-04T05:37:20.633Z,60.41
2018-05-04T05:38:20.618Z,60.31
2018-05-04T05:39:20.606Z,60.97
2018-05-04T05:40:20.358Z,60.21
2018-05-04T05:41:20.588Z,60.31
2018-05-04T05:42:20.405Z,60.21
2018-05-04T05:43:20.311Z,60.6
2018-05-04T05:44:20.555Z,60.69
2018-05-04T05:45:20.545Z,60.78
2018-05-04T05:46:20.533Z,58.79
2018-05-04T05:47:20.265Z,58.59
2018-05-04T05:48:20.513Z,59.36
2018-05-04T05:49:20.502Z,59.96
2018-05-04T05:50:20.499Z,60.34
2018-05-04T05:51:20.482Z,59.74
2018-05-04T05:52:20.471Z,59.29
2018-05-04T05:53:20.466Z,59.93
2018-05-04T05:54:20.451Z,60.34
2018-05-04T05:55:20.438Z,61.1
2018-05-04T05:56:20.436Z,61.38
2018-05-04T05:57:20.417Z,60.72
2018-05-04T05:58:20.407Z,60.63
2018-05-04T05:59:20.404Z,62.05
2018-05-04T06:00:20.131Z,61.96
2018-05-04T06:01:20.377Z,62.43
2018-05-04T06:02:20.372Z,62.15
2018-05-04T06:03:20.357Z,62.05
2018-05-04T06:04:20.349Z,62.91
2018-05-04T06:05:20.336Z,63.86
2018-05-04T06:06:20.326Z,64.62
2018-05-04T06:07:20.320Z,65.29
2018-05-04T06:08:20.306Z,65.58
2018-05-04T06:09:20.430Z,64.72
2018-05-04T06:10:20.283Z,63.96
2018-05-04T06:11:20.417Z,64.24
2018-05-04T06:12:20.262Z,64.53
2018-05-04T06:13:20.253Z,64.05
2018-05-04T06:14:19.984Z,63.1
2018-05-04T06:15:19.974Z,63.96
2018-05-04T06:16:20.230Z,65.95
2018-05-04T06:17:20.220Z,65.29
2018-05-04T06:18:20.201Z,63.96
2018-05-04T06:19:20.193Z,63.86
2018-05-04T06:20:20.189Z,65.58
2018-05-04T06:21:20.168Z,64.81
2018-05-04T06:22:19.907Z,65.77
2018-05-04T06:23:20.150Z,66.05
2018-05-04T06:24:20.137Z,67
2018-05-04T06:25:20.133Z,65.58
2018-05-04T06:26:19.859Z,63.86
2018-05-04T06:27:20.113Z,63.99
2018-05-04T06:28:19.916Z,64.18
2018-05-04T06:29:20.091Z,62.46
2018-05-04T06:30:20.085Z,61.13
2018-05-04T06:31:20.069Z,62.18
2018-05-04T06:32:20.060Z,63.7
2018-05-04T06:33:20.051Z,65.32
2018-05-04T06:34:20.042Z,65.7
2018-05-04T06:35:20.042Z,64.28
2018-05-04T06:36:20.038Z,63.04
2018-05-04T06:37:20.007Z,62.65
2018-05-04T06:38:20.000Z,61.9
2018-05-04T06:39:19.732Z,61.8
2018-05-04T06:40:19.723Z,61.8
2018-05-04T06:41:19.973Z,60.85
2018-05-04T06:42:19.963Z,61.51
2018-05-04T06:43:19.954Z,61.42
2018-05-04T06:44:19.966Z,61.25
2018-05-04T06:45:19.933Z,60.49
2018-05-04T06:46:19.921Z,60.97
2018-05-04T06:47:19.914Z,60.4
2018-05-04T06:48:19.908Z,60.3
2018-05-04T06:49:19.635Z,60.3
2018-05-04T06:50:19.902Z,60.11
2018-05-04T06:51:19.617Z,61.64
2018-05-04T06:52:19.883Z,61.54
2018-05-04T06:53:19.647Z,60.24
2018-05-04T06:54:19.847Z,57.28
2018-05-04T06:55:19.581Z,56.81
2018-05-04T06:56:19.571Z,57.73
2018-05-04T06:57:19.835Z,58.52
2018-05-04T06:58:19.811Z,60.33
2018-05-04T06:59:19.923Z,58.52
2018-05-04T07:00:19.794Z,60.14
2018-05-04T07:01:19.789Z,60.33
2018-05-04T07:02:19.772Z,60.33
2018-05-04T07:03:19.508Z,59.95
2018-05-04T07:04:19.500Z,60.14
2018-05-04T07:05:19.489Z,58.62
2018-05-04T07:06:19.741Z,56.62
2018-05-04T07:07:19.727Z,55.66
2018-05-04T07:08:19.719Z,54.71
2018-05-04T07:09:19.712Z,54.8
2018-05-04T07:10:19.706Z,56.04
2018-05-04T07:11:19.699Z,58.43
2018-05-04T07:12:19.692Z,57.28
2018-05-04T07:13:20.288Z,57.48
2018-05-04T07:14:19.416Z,57.57
2018-05-04T07:15:19.658Z,57.57
2018-05-04T07:16:19.659Z,57.89
2018-05-04T07:17:19.642Z,58.62
2018-05-04T07:18:19.653Z,58.62
2018-05-04T07:19:19.626Z,57.09
2018-05-04T07:20:19.615Z,56.81
2018-05-04T07:21:19.607Z,56.52
2018-05-04T07:22:19.601Z,57.28
2018-05-04T07:23:19.592Z,58.33
2018-05-04T07:24:19.598Z,59.95
2018-05-04T07:25:19.604Z,58.52
2018-05-04T07:26:19.571Z,57.67
2018-05-04T07:27:19.299Z,56.24
2018-05-04T07:28:19.550Z,57.19
2018-05-04T07:29:19.542Z,55.76
2018-05-04T07:30:19.532Z,55.09
2018-05-04T07:31:19.529Z,56.43
2018-05-04T07:32:19.716Z,57.09
2018-05-04T07:33:19.505Z,58.52
2018-05-04T07:34:19.496Z,59.86
2018-05-04T07:35:19.495Z,59.95
2018-05-04T07:36:19.479Z,57.09
2018-05-04T07:37:19.472Z,57.19
2018-05-04T07:38:19.467Z,60.33
2018-05-04T07:39:19.456Z,58.81
2018-05-04T07:40:19.446Z,55.95
2018-05-04T07:41:19.437Z,56.52
2018-05-04T07:42:19.427Z,57.38
2018-05-04T07:43:19.424Z,57.28
2018-05-04T07:44:19.412Z,57.76
2018-05-04T07:45:19.404Z,58.81
2018-05-04T07:46:19.481Z,58.91
2018-05-04T07:47:19.135Z,58.62
2018-05-04T07:48:19.381Z,58.81
2018-05-04T07:49:19.367Z,57.76
2018-05-04T07:50:19.112Z,55.95
2018-05-04T07:51:19.100Z,57.57
2018-05-04T07:52:19.088Z,57.5
2018-05-04T07:53:19.338Z,57.67
2018-05-04T07:54:19.072Z,56.71
2018-05-04T07:55:19.490Z,57.19
2018-05-04T07:56:19.055Z,58.55
2018-05-04T07:57:19.301Z,57.41
2018-05-04T07:58:19.333Z,59.12
2018-05-04T07:59:19.030Z,60.75
2018-05-04T08:00:19.280Z,59.31
2018-05-04T08:01:19.282Z,59.31
2018-05-04T08:02:19.265Z,57.7
2018-05-04T08:03:19.258Z,59.51
2018-05-04T08:04:19.247Z,60.17
2018-05-04T08:05:19.238Z,61.22
2018-05-04T08:06:19.228Z,59.6
2018-05-04T08:07:19.219Z,59.51
2018-05-04T08:08:19.211Z,58.17
2018-05-04T08:09:18.990Z,57.53
2018-05-04T08:10:19.196Z,57.89
2018-05-04T08:11:19.187Z,57.79
2018-05-04T08:12:19.179Z,58.26
2018-05-04T08:13:18.914Z,57.31
2018-05-04T08:14:19.169Z,55.98
2018-05-04T08:15:19.172Z,55.12
2018-05-04T08:16:19.148Z,56.07
2018-05-04T08:17:18.885Z,56.17
2018-05-04T08:18:19.134Z,57.79
2018-05-04T08:19:18.867Z,58.75
2018-05-04T08:20:19.117Z,58.36
2018-05-04T08:21:19.112Z,57.5
2018-05-04T08:22:19.109Z,56.55
2018-05-04T08:23:19.094Z,55.41
2018-05-04T08:24:19.084Z,55.79
2018-05-04T08:25:19.076Z,56.26
2018-05-04T08:26:19.070Z,55.5
2018-05-04T08:27:19.221Z,54.74
2018-05-04T08:28:18.795Z,54.74
2018-05-04T08:29:19.055Z,56.46
2018-05-04T08:30:18.777Z,55.88
2018-05-04T08:31:18.773Z,54.17
2018-05-04T08:32:19.020Z,54.07
2018-05-04T08:33:18.755Z,53.78
2018-05-04T08:34:19.003Z,54.36
2018-05-04T08:35:19.184Z,55.5
2018-05-04T08:36:18.730Z,56.84
2018-05-04T08:37:18.979Z,57.72
2018-05-04T08:38:18.716Z,56.29
2018-05-04T08:39:18.708Z,55.72
2018-05-04T08:40:18.957Z,55.91
2018-05-04T08:41:18.949Z,55.82
2018-05-04T08:42:18.941Z,55.27
2018-05-04T08:43:18.677Z,55.36
2018-05-04T08:44:18.941Z,55.18
2018-05-04T08:45:18.659Z,53.36
2018-05-04T08:46:18.651Z,50.12
2018-05-04T08:47:18.645Z,51.29
2018-05-04T08:48:18.862Z,51.54
2018-05-04T08:49:18.888Z,50.4
2018-05-04T08:50:18.882Z,51.26
2018-05-04T08:51:18.615Z,52.12
2018-05-04T08:52:18.866Z,49.54
2018-05-04T08:53:18.867Z,50.49
2018-05-04T08:54:19.062Z,49.64
2018-05-04T08:55:18.654Z,49.83
2018-05-04T08:56:18.843Z,51.83
2018-05-04T08:57:18.934Z,51.93
2018-05-04T08:58:18.828Z,51.54
2018-05-04T08:59:18.826Z,51.35
2018-05-04T09:00:18.551Z,51.35
2018-05-04T09:01:18.802Z,52.03
2018-05-04T09:02:18.537Z,53.17
2018-05-04T09:03:18.794Z,52.98
2018-05-04T09:04:18.778Z,51.93
2018-05-04T09:05:18.869Z,51.57
2018-05-04T09:06:18.513Z,52.34
2018-05-04T09:07:18.763Z,51
2018-05-04T09:08:18.753Z,49.76
2018-05-04T09:09:18.748Z,49.76
2018-05-04T09:10:18.751Z,49.18
2018-05-04T09:11:18.735Z,49.57
2018-05-04T09:12:18.731Z,48.54
2018-05-04T09:13:18.721Z,48.64
2018-05-04T09:14:18.718Z,49.02
2018-05-04T09:15:18.790Z,48.16
2018-05-04T09:16:18.701Z,49.52
2018-05-04T09:17:18.436Z,48.47
2018-05-04T09:18:18.430Z,48.18
2018-05-04T09:19:18.684Z,47.42
2018-05-04T09:20:18.679Z,47.13
2018-05-04T09:21:18.414Z,48.47
2018-05-04T09:22:18.406Z,47.52
2018-05-04T09:23:18.668Z,46.94
2018-05-04T09:24:18.664Z,48.59
2018-05-04T09:25:18.812Z,48.02
2018-05-04T09:26:18.384Z,46.2
2018-05-04T09:27:18.634Z,44
2018-05-04T09:28:18.371Z,44
2018-05-04T09:29:18.625Z,45.15
2018-05-04T09:30:18.618Z,45.91
2018-05-04T09:31:18.614Z,44.67
2018-05-04T09:32:18.610Z,43.71
2018-05-04T09:33:18.601Z,44.07
2018-05-04T09:34:18.597Z,45.98
2018-05-04T09:35:18.590Z,45.31
2018-05-04T09:36:18.584Z,46.56
2018-05-04T09:37:18.648Z,47.32
2018-05-04T09:38:18.315Z,48.68
2018-05-04T09:39:18.566Z,47.92
2018-05-04T09:40:18.560Z,46.96
2018-05-04T09:41:18.296Z,46.39
2018-05-04T09:42:18.558Z,46.98
2018-05-04T09:43:18.288Z,46.22
2018-05-04T09:44:18.546Z,45.07
2018-05-04T09:45:18.533Z,45.94
2018-05-04T09:46:18.582Z,46.12
2018-05-04T09:47:18.699Z,45.65
2018-05-04T09:48:18.262Z,44.4
2018-05-04T09:49:18.513Z,45.55
2018-05-04T09:50:18.509Z,45.55
2018-05-04T09:51:18.504Z,44.43
2018-05-04T09:52:18.500Z,44.21
2018-05-04T09:53:18.503Z,44.04
2018-05-04T09:54:18.498Z,43.18
2018-05-04T09:55:18.490Z,44.04
2018-05-04T09:56:18.225Z,46.91
2018-05-04T09:57:18.474Z,47.01
2018-05-04T09:58:18.227Z,47.01
2018-05-04T09:59:18.208Z,46.25
2018-05-04T10:00:18.458Z,45.48
2018-05-04T10:01:18.454Z,44.81
2018-05-04T10:02:18.467Z,45.86
2018-05-04T10:03:18.457Z,48.35
2018-05-04T10:04:18.190Z,46.82
2018-05-04T10:05:18.175Z,47.2
2018-05-04T10:06:18.430Z,47.97
2018-05-04T10:07:18.423Z,47.01
2018-05-04T10:08:18.422Z,47.68
2018-05-04T10:09:18.502Z,47.2
2018-05-04T10:10:18.152Z,47.87
2018-05-04T10:11:18.404Z,48.64
2018-05-04T10:12:18.401Z,48.35
2018-05-04T10:13:18.400Z,46.89
2018-05-04T10:14:18.134Z,49.86
2018-05-04T10:15:18.387Z,47.85
2018-05-04T10:16:18.120Z,50.21
2018-05-04T10:17:18.375Z,48.88
2018-05-04T10:18:18.111Z,48.68
2018-05-04T10:19:18.108Z,48.97
2018-05-04T10:20:18.101Z,51.46
2018-05-04T10:21:18.096Z,50.5
2018-05-04T10:22:18.345Z,51.87
2018-05-04T10:23:18.352Z,53.59
2018-05-04T10:24:18.079Z,52.44
2018-05-04T10:25:18.076Z,50.81
2018-05-04T10:26:18.333Z,51.97
2018-05-04T10:27:18.321Z,54.36
2018-05-04T10:28:18.317Z,53.97
2018-05-04T10:29:18.053Z,52.44
2018-05-04T10:30:18.305Z,50.34
2018-05-04T10:31:18.356Z,48.61
2018-05-04T10:32:18.295Z,51.01
2018-05-04T10:33:18.289Z,52.34
2018-05-04T10:34:18.286Z,50.62
2018-05-04T10:35:18.280Z,52.32
2018-05-04T10:36:18.016Z,52.7
2018-05-04T10:37:18.268Z,53.02
2018-05-04T10:38:18.423Z,53.3
2018-05-04T10:39:18.256Z,52.13
2018-05-04T10:40:18.251Z,55.19
2018-05-04T10:41:17.988Z,52.99
2018-05-04T10:42:18.239Z,54.04
2018-05-04T10:43:17.977Z,56.15
2018-05-04T10:44:17.971Z,56.05
2018-05-04T10:45:18.367Z,57.1
2018-05-04T10:46:18.217Z,57.42
2018-05-04T10:47:18.211Z,56.84
2018-05-04T10:48:17.947Z,56.17
2018-05-04T10:49:17.943Z,56.17
2018-05-04T10:50:17.936Z,56.46
2018-05-04T10:51:18.196Z,53.11
2018-05-04T10:52:17.925Z,53.97
2018-05-04T10:53:17.920Z,55
2018-05-04T10:54:18.171Z,55.19
2018-05-04T10:55:18.167Z,56.05
2018-05-04T10:56:18.169Z,56.34
2018-05-04T10:57:18.289Z,55.67
2018-05-04T10:58:18.155Z,57.39
2018-05-04T10:59:18.148Z,55.57
2018-05-04T11:00:17.884Z,57.97
2018-05-04T11:01:18.136Z,61.69
2018-05-04T11:02:17.880Z,60.45
2018-05-04T11:03:17.865Z,57.77
2018-05-04T11:04:18.116Z,57.87
2018-05-04T11:05:18.231Z,57.01
2018-05-04T11:06:18.116Z,57.01
2018-05-04T11:07:18.097Z,57.29
2018-05-04T11:08:18.120Z,57.1
2018-05-04T11:09:18.086Z,58.28
2018-05-04T11:10:18.080Z,55.51
2018-05-04T11:11:18.072Z,56.27
2018-05-04T11:12:18.070Z,57.61
2018-05-04T11:13:18.068Z,57.61
2018-05-04T11:14:18.059Z,56.27
2018-05-04T11:15:18.053Z,55.51
2018-05-04T11:16:18.045Z,56.37
2018-05-04T11:17:18.037Z,57.13
2018-05-04T11:18:17.777Z,56.08
2018-05-04T11:19:18.132Z,58.56
2018-05-04T11:20:18.030Z,62.68
2018-05-04T11:21:18.022Z,59.72
2018-05-04T11:22:17.754Z,58.95
2018-05-04T11:23:18.007Z,57.7
2018-05-04T11:24:18.016Z,57.7
2018-05-04T11:25:17.843Z,57.8
2018-05-04T11:26:17.733Z,57.04
2018-05-04T11:27:17.986Z,56.56
2018-05-04T11:28:17.993Z,56.46
2018-05-04T11:29:17.970Z,56.08
2018-05-04T11:30:17.966Z,56.08
2018-05-04T11:31:17.704Z,56.15
2018-05-04T11:32:17.696Z,59.4
2018-05-04T11:33:17.947Z,60.64
2018-05-04T11:34:17.684Z,57.77
2018-05-04T11:35:17.937Z,58.83
2018-05-04T11:36:17.935Z,58.63
2018-05-04T11:37:17.669Z,59.91
2018-05-04T11:38:17.919Z,58.95
2018-05-04T11:39:17.658Z,59.33
2018-05-04T11:40:17.909Z,63.35
2018-05-04T11:41:18.124Z,58.76
2018-05-04T11:42:17.901Z,57.7
2018-05-04T11:43:18.098Z,57.42
2018-05-04T11:44:17.627Z,59.05
2018-05-04T11:45:17.644Z,57.42
2018-05-04T11:46:17.876Z,58.95
2018-05-04T11:47:17.873Z,60.96
2018-05-04T11:48:17.604Z,60.29
2018-05-04T11:49:17.857Z,58.76
2018-05-04T11:50:17.859Z,58.95
2018-05-04T11:51:17.853Z,59.62
2018-05-04T11:52:17.838Z,61.34
2018-05-04T11:53:17.835Z,57.8
2018-05-04T11:54:17.573Z,58.86
2018-05-04T11:55:18.076Z,58.86
2018-05-04T11:56:17.562Z,61.25
2018-05-04T11:57:17.812Z,56.94
2018-05-04T11:58:17.809Z,57.42
2018-05-04T11:59:17.802Z,57.61
2018-05-04T12:00:17.797Z,60.67
2018-05-04T12:01:17.534Z,60.19
2018-05-04T12:02:17.790Z,59.14
2018-05-04T12:03:17.783Z,61.05
2018-05-04T12:04:17.521Z,61.34
2018-05-04T12:05:17.769Z,58.09
2018-05-04T12:06:17.505Z,59.43
2018-05-04T12:07:17.760Z,59.05
2018-05-04T12:08:17.751Z,60.96
2018-05-04T12:09:17.747Z,60.38
2018-05-04T12:10:17.739Z,58.95
2018-05-04T12:11:17.735Z,60.19
2018-05-04T12:12:17.739Z,61.54
2018-05-04T12:13:17.725Z,60
2018-05-04T12:14:17.467Z,60.03
2018-05-04T12:15:17.715Z,59.75
2018-05-04T12:16:17.868Z,61.76
2018-05-04T12:17:17.449Z,61.28
2018-05-04T12:18:17.719Z,57.16
2018-05-04T12:19:17.694Z,56.68
2018-05-04T12:20:17.691Z,57.92
2018-05-04T12:21:17.690Z,56.39
2018-05-04T12:22:17.679Z,56.77
2018-05-04T12:23:17.670Z,58.4
2018-05-04T12:24:17.669Z,55.44
2018-05-04T12:25:17.405Z,56.3
2018-05-04T12:26:17.659Z,58.69
2018-05-04T12:27:17.666Z,60.48
2018-05-04T12:28:17.643Z,62.01
2018-05-04T12:29:17.382Z,59.17
2018-05-04T12:30:17.636Z,59.17
2018-05-04T12:31:17.375Z,59.94
2018-05-04T12:32:17.627Z,61.47
2018-05-04T12:33:17.617Z,57.26
2018-05-04T12:34:17.356Z,58.69
2018-05-04T12:35:17.351Z,56.2
2018-05-04T12:36:17.602Z,55.82
2018-05-04T12:37:17.601Z,55.53
2018-05-04T12:38:17.690Z,54.86
2018-05-04T12:39:17.590Z,55.44
2018-05-04T12:40:17.585Z,55.82
2018-05-04T12:41:17.321Z,56.46
2018-05-04T12:42:17.572Z,59.72
2018-05-04T12:43:17.567Z,58.31
2018-05-04T12:44:17.561Z,60.03
2018-05-04T12:45:17.556Z,58.98
2018-05-04T12:46:17.549Z,60.13
2018-05-04T12:47:17.551Z,57.64
2018-05-04T12:48:17.540Z,57.73
2018-05-04T12:49:17.279Z,56.59
2018-05-04T12:50:17.534Z,56.59
2018-05-04T12:51:17.529Z,58.5
2018-05-04T12:52:17.520Z,57.83
2018-05-04T12:53:17.521Z,60.64
2018-05-04T12:54:17.253Z,57.86